Time;durP1;ratioP1;P1;durP2;ratioP2;P2;SDS_P1;SDS_P2;PMS_P1;PMS_P2;Temp;Humidity;BMP_temperature;BMP_pressure;BME280_temperature;BME280_humidity;BME280_pressure;Samples;Min_cycle;Max_cycle;Signal;HPM_P1;HPM_P2
2022/08/02 00:02:19;;;;;;;5.60;0.30;;;17.20;97.90;;;;;;4995226;28;20077;-70
2022/08/02 00:04:45;;;;;;;2.08;0.30;;;17.20;97.80;;;;;;4996232;28;20145;-71
2022/08/02 00:07:11;;;;;;;3.22;0.68;;;17.10;97.80;;;;;;4996287;28;20076;-70
2022/08/02 00:09:37;;;;;;;4.78;0.35;;;17.10;98.10;;;;;;5001881;28;20099;-69
2022/08/02 00:12:03;;;;;;;9.52;0.52;;;17.10;98.40;;;;;;4998812;28;20109;-70
2022/08/02 00:14:29;;;;;;;3.35;0.82;;;17.10;98.00;;;;;;4996704;28;20053;-69
2022/08/02 00:16:54;;;;;;;5.70;0.40;;;17.10;97.90;;;;;;4993082;28;20031;-71
2022/08/02 00:19:20;;;;;;;1.58;0.20;;;17.00;97.90;;;;;;4997397;28;20649;-71
2022/08/02 00:21:45;;;;;;;0.95;0.20;;;17.00;97.90;;;;;;4995659;28;20030;-71
2022/08/02 00:24:11;;;;;;;1.30;0.20;;;17.00;97.30;;;;;;4995797;28;20122;-71
2022/08/02 00:26:37;;;;;;;2.67;0.30;;;16.90;97.40;;;;;;5002420;28;20043;-71
2022/08/02 00:29:03;;;;;;;4.13;0.60;;;16.90;97.20;;;;;;4997740;28;20061;-71
2022/08/02 00:31:29;;;;;;;3.53;0.28;;;16.90;97.00;;;;;;5000696;28;20030;-71
2022/08/02 00:33:54;;;;;;;0.80;0.20;;;16.90;97.20;;;;;;4996625;28;20038;-71
2022/08/02 00:36:20;;;;;;;2.05;0.50;;;16.90;97.00;;;;;;4999119;28;20030;-71
2022/08/02 00:38:47;;;;;;;3.03;0.30;;;16.90;97.20;;;;;;5001496;28;20413;-71
2022/08/02 00:41:15;;;;;;;6.38;0.40;;;16.90;96.80;;;;;;5019503;28;20042;-71
2022/08/02 00:43:42;;;;;;;2.60;0.10;;;16.90;96.80;;;;;;4998248;28;20046;-69
2022/08/02 00:46:07;;;;;;;6.68;1.08;;;16.90;96.60;;;;;;5004233;28;20041;-70
2022/08/02 00:48:33;;;;;;;3.65;0.40;;;16.90;96.60;;;;;;5004405;28;20046;-70
2022/08/02 00:50:59;;;;;;;2.58;0.35;;;16.90;97.00;;;;;;5005628;28;20034;-70
2022/08/02 00:53:25;;;;;;;2.28;0.38;;;16.90;96.90;;;;;;5004330;28;20052;-69
2022/08/02 00:55:50;;;;;;;4.03;0.40;;;16.80;96.70;;;;;;4997073;28;20030;-70
2022/08/02 00:58:16;;;;;;;4.57;0.60;;;16.90;96.70;;;;;;4998254;28;20176;-69
2022/08/02 01:00:41;;;;;;;0.47;0.22;;;16.90;96.30;;;;;;5010758;28;20506;-72
2022/08/02 01:03:07;;;;;;;0.68;0.20;;;16.90;96.00;;;;;;4992837;28;20125;-72
2022/08/02 01:05:33;;;;;;;2.63;0.82;;;16.90;96.10;;;;;;4997180;28;20388;-70
2022/08/02 01:07:58;;;;;;;1.00;0.25;;;16.90;96.40;;;;;;5000211;28;20057;-72
2022/08/02 01:10:24;;;;;;;1.10;0.47;;;16.90;96.30;;;;;;5002922;28;20052;-71
2022/08/02 01:12:50;;;;;;;2.28;0.50;;;16.80;96.60;;;;;;4991490;28;20525;-72
2022/08/02 01:15:16;;;;;;;2.22;0.45;;;16.80;96.50;;;;;;4997280;28;20383;-72
2022/08/02 01:17:48;;;;;;;3.05;0.50;;;16.80;96.40;;;;;;5000921;28;20057;-69
2022/08/02 01:20:32;;;;;;;3.28;0.47;;;16.80;96.50;;;;;;5004111;28;20039;-72
2022/08/02 01:23:22;;;;;;;4.00;0.52;;;16.80;96.80;;;;;;5004634;28;20046;-71
2022/08/02 01:26:08;;;;;;;3.63;0.52;;;16.70;96.90;;;;;;5010868;28;20041;-70
2022/08/02 01:29:18;;;;;;;3.92;0.30;;;16.70;97.20;;;;;;5008824;28;20045;-71
2022/08/02 01:31:53;;;;;;;5.65;0.65;;;16.70;97.30;;;;;;4967038;28;20474;-72
2022/08/02 01:34:28;;;;;;;1.95;0.70;;;16.70;97.80;;;;;;4996627;28;20037;-72
2022/08/02 01:37:09;;;;;;;1.98;0.38;;;16.70;97.90;;;;;;5001379;28;20506;-71
2022/08/02 01:39:37;;;;;;;1.80;0.32;;;16.70;98.30;;;;;;5001949;28;20038;-72
2022/08/02 01:42:04;;;;;;;4.55;0.98;;;16.60;98.30;;;;;;5013868;28;20376;-72
2022/08/02 01:44:34;;;;;;;1.83;0.47;;;16.70;98.40;;;;;;4999754;28;20135;-71
2022/08/02 01:47:03;;;;;;;2.85;0.77;;;16.70;98.40;;;;;;4998212;28;20081;-71
2022/08/02 01:49:30;;;;;;;1.25;0.47;;;16.70;98.50;;;;;;5001428;28;20127;-69
2022/08/02 01:54:44;;;;;;;1.92;0.28;;;16.70;98.50;;;;;;4998556;28;20042;-68
2022/08/02 01:57:13;;;;;;;2.08;0.55;;;16.70;98.60;;;;;;4998138;28;20045;-69
2022/08/02 01:59:42;;;;;;;2.17;0.60;;;16.70;98.90;;;;;;4997070;28;20065;-69
2022/08/02 02:02:09;;;;;;;8.88;1.20;;;16.70;99.00;;;;;;4997073;28;20038;-70
2022/08/02 02:04:36;;;;;;;2.05;0.50;;;16.70;99.10;;;;;;5007504;28;20045;-71
2022/08/02 02:07:02;;;;;;;1.63;0.38;;;16.70;99.50;;;;;;5002688;28;20033;-71
2022/08/02 02:09:30;;;;;;;3.17;0.75;;;16.60;99.60;;;;;;5002863;28;20505;-69
2022/08/02 02:11:58;;;;;;;3.42;0.63;;;16.60;99.90;;;;;;5004440;28;20085;-72
2022/08/02 02:14:26;;;;;;;7.72;1.25;;;16.50;99.90;;;;;;5005545;28;20509;-72
2022/08/02 02:16:52;;;;;;;3.95;0.50;;;16.40;99.90;;;;;;5004333;28;20030;-69
2022/08/02 02:19:20;;;;;;;1.83;0.43;;;16.40;99.90;;;;;;5002709;28;20030;-71
2022/08/02 02:21:46;;;;;;;5.63;0.52;;;16.40;99.90;;;;;;4998103;28;20105;-70
2022/08/02 02:24:12;;;;;;;2.13;0.32;;;16.40;99.90;;;;;;4998591;28;20463;-72
2022/08/02 02:26:39;;;;;;;1.55;0.40;;;16.50;99.90;;;;;;5000939;28;20034;-71
2022/08/02 02:29:08;;;;;;;9.55;1.02;;;16.50;99.90;;;;;;4998359;28;20032;-72
2022/08/02 02:31:37;;;;;;;3.58;0.40;;;16.50;99.90;;;;;;4999018;28;20034;-71
2022/08/02 02:34:28;;;;;;;1.88;0.47;;;16.60;99.90;;;;;;5012394;28;20109;-69
2022/08/02 02:36:58;;;;;;;3.00;1.15;;;16.60;99.90;;;;;;4999503;28;20033;-70
2022/08/02 02:39:25;;;;;;;1.65;0.57;;;16.70;99.90;;;;;;5002710;28;20041;-71
2022/08/02 02:41:53;;;;;;;6.53;0.52;;;16.70;99.90;;;;;;5007491;28;20504;-72
2022/08/02 02:44:20;;;;;;;3.33;0.55;;;16.70;99.90;;;;;;5004935;28;20033;-70
2022/08/02 02:46:50;;;;;;;3.35;0.38;;;16.70;99.90;;;;;;5007109;28;20494;-69
2022/08/02 02:49:17;;;;;;;1.90;0.50;;;16.80;99.90;;;;;;5014234;28;20030;-69
2022/08/02 02:51:44;;;;;;;4.53;0.52;;;16.80;99.90;;;;;;5000772;28;20040;-69
2022/08/02 02:54:11;;;;;;;2.88;0.30;;;16.80;99.70;;;;;;4996870;28;20747;-69
2022/08/02 02:56:39;;;;;;;3.15;0.75;;;16.80;99.60;;;;;;5000024;28;20443;-72
2022/08/02 02:59:06;;;;;;;2.40;0.45;;;16.80;99.70;;;;;;5011954;28;20034;-71
2022/08/02 03:01:33;;;;;;;3.13;0.30;;;16.80;99.60;;;;;;4998191;28;20042;-71
2022/08/02 03:04:05;;;;;;;1.08;0.22;;;16.70;99.50;;;;;;5004286;28;20121;-72
2022/08/02 03:06:32;;;;;;;2.72;0.50;;;16.70;99.50;;;;;;5006288;28;20053;-71
2022/08/02 03:08:58;;;;;;;2.80;0.55;;;16.70;99.40;;;;;;4996647;28;20936;-71
2022/08/02 03:11:28;;;;;;;2.30;0.60;;;16.60;99.50;;;;;;5008699;28;20049;-72
2022/08/02 03:13:58;;;;;;;2.90;0.65;;;16.60;99.90;;;;;;5020407;28;20622;-72
2022/08/02 03:16:27;;;;;;;3.83;0.40;;;16.50;99.90;;;;;;5002188;28;20506;-72
2022/08/02 03:18:54;;;;;;;8.52;0.98;;;16.50;99.90;;;;;;5003082;28;20033;-71
2022/08/02 03:21:20;;;;;;;0.88;0.40;;;16.50;99.90;;;;;;4996839;28;20065;-72
2022/08/02 03:23:46;;;;;;;2.60;0.40;;;16.50;99.90;;;;;;4998573;28;20057;-70
2022/08/02 03:26:12;;;;;;;2.78;0.60;;;16.50;99.90;;;;;;4998993;28;20041;-71
2022/08/02 03:28:38;;;;;;;2.35;0.77;;;16.40;99.90;;;;;;4998975;28;20046;-70
2022/08/02 03:31:03;;;;;;;2.70;0.60;;;16.50;99.90;;;;;;4995198;28;20576;-71
2022/08/02 03:33:30;;;;;;;2.22;0.50;;;16.40;99.90;;;;;;4997094;28;20126;-71
2022/08/02 03:35:58;;;;;;;3.75;0.55;;;16.40;99.90;;;;;;4996466;28;20128;-72
2022/08/02 03:38:25;;;;;;;5.65;0.82;;;16.40;99.90;;;;;;4995782;28;20039;-71
2022/08/02 03:40:52;;;;;;;2.30;0.77;;;16.40;99.90;;;;;;4999288;28;20092;-71
2022/08/02 03:43:19;;;;;;;6.53;0.60;;;16.40;99.90;;;;;;4999842;28;20113;-72
2022/08/02 03:45:47;;;;;;;3.05;0.40;;;16.40;99.90;;;;;;5003141;28;20494;-71
2022/08/02 03:48:14;;;;;;;3.40;0.50;;;16.30;99.90;;;;;;4999154;28;20129;-71
2022/08/02 03:50:41;;;;;;;1.75;0.60;;;16.30;99.90;;;;;;4999057;28;20085;-70
2022/08/02 03:53:07;;;;;;;5.78;1.40;;;16.30;99.90;;;;;;4993468;28;20125;-72
2022/08/02 03:55:34;;;;;;;2.08;0.50;;;16.30;99.90;;;;;;4997849;28;20565;-71
2022/08/02 03:58:00;;;;;;;6.07;0.70;;;16.30;99.90;;;;;;4994201;28;20551;-71
2022/08/02 04:00:26;;;;;;;4.05;0.63;;;16.30;99.90;;;;;;4996636;28;20112;-70
2022/08/02 04:02:52;;;;;;;1.88;0.80;;;16.40;99.90;;;;;;4996818;28;20117;-69
2022/08/02 04:05:18;;;;;;;2.58;0.55;;;16.40;99.90;;;;;;4995823;28;20080;-70
2022/08/02 04:07:44;;;;;;;3.60;0.57;;;16.30;99.90;;;;;;4999052;28;20099;-71
2022/08/02 04:10:11;;;;;;;2.28;0.60;;;16.40;99.90;;;;;;4999593;28;20033;-70
2022/08/02 04:12:37;;;;;;;4.28;0.60;;;16.40;99.90;;;;;;4995415;28;20037;-68
2022/08/02 04:15:05;;;;;;;3.33;0.50;;;16.40;99.90;;;;;;4995664;28;20538;-68
2022/08/02 04:17:33;;;;;;;5.80;0.70;;;16.30;99.90;;;;;;4996849;28;20080;-69
2022/08/02 04:20:18;;;;;;;1.27;0.40;;;16.30;99.90;;;;;;4996598;28;20053;-70
2022/08/02 04:22:50;;;;;;;2.90;0.60;;;16.30;99.90;;;;;;4998490;28;20413;-70
2022/08/02 04:25:18;;;;;;;3.47;0.40;;;16.30;99.90;;;;;;5012766;28;20117;-70
2022/08/02 04:27:45;;;;;;;3.47;0.55;;;16.30;99.90;;;;;;5009414;28;20352;-70
2022/08/02 04:30:11;;;;;;;1.75;0.55;;;16.30;99.90;;;;;;5004273;28;20067;-70
2022/08/02 04:32:38;;;;;;;2.10;0.73;;;16.30;99.90;;;;;;5001049;28;20042;-69
2022/08/02 04:35:05;;;;;;;7.40;0.80;;;16.30;99.90;;;;;;4996795;28;21469;-70
2022/08/02 04:37:31;;;;;;;2.22;0.70;;;16.20;99.90;;;;;;4996762;28;20494;-69
2022/08/02 04:39:57;;;;;;;4.15;0.80;;;16.20;99.90;;;;;;4996016;28;20046;-71
2022/08/02 04:42:24;;;;;;;4.90;0.75;;;16.20;99.90;;;;;;5001819;28;20678;-68
2022/08/02 04:44:51;;;;;;;2.97;0.85;;;16.20;99.90;;;;;;4994250;28;20113;-69
2022/08/02 04:47:18;;;;;;;3.35;0.80;;;16.20;99.90;;;;;;4992709;28;20026;-67
2022/08/02 04:49:43;;;;;;;3.25;0.60;;;16.20;99.90;;;;;;4992661;28;20049;-71
2022/08/02 04:52:09;;;;;;;2.28;0.55;;;16.20;99.90;;;;;;4996035;28;20035;-69
2022/08/02 04:54:35;;;;;;;4.93;0.77;;;16.20;99.90;;;;;;4994146;28;20545;-69
2022/08/02 04:57:01;;;;;;;2.83;0.80;;;16.20;99.90;;;;;;4996929;28;20034;-68
2022/08/02 04:59:26;;;;;;;0.95;0.45;;;16.20;99.90;;;;;;4999164;28;20038;-70
2022/08/02 05:01:52;;;;;;;3.03;0.63;;;16.30;99.90;;;;;;5000018;28;20057;-70
2022/08/02 05:04:17;;;;;;;4.65;0.90;;;16.30;99.90;;;;;;5004352;28;20057;-69
2022/08/02 05:06:43;;;;;;;9.40;1.23;;;16.30;99.90;;;;;;5003356;28;20038;-71
2022/08/02 05:09:08;;;;;;;5.30;0.80;;;16.30;99.90;;;;;;5004595;28;20030;-72
2022/08/02 05:11:34;;;;;;;5.13;0.73;;;16.30;99.90;;;;;;5008306;28;20509;-71
2022/08/02 05:14:00;;;;;;;5.70;0.98;;;16.30;99.90;;;;;;5007405;28;20050;-71
2022/08/02 05:16:26;;;;;;;4.43;0.88;;;16.40;99.90;;;;;;5002662;28;20100;-71
2022/08/02 05:18:51;;;;;;;4.43;1.20;;;16.40;99.90;;;;;;5001839;28;20041;-71
2022/08/02 05:21:17;;;;;;;4.40;1.67;;;16.40;99.90;;;;;;5002758;28;20057;-71
2022/08/02 05:23:43;;;;;;;3.20;0.75;;;16.40;99.90;;;;;;5000891;28;20040;-71
2022/08/02 05:26:08;;;;;;;3.95;0.70;;;16.40;99.90;;;;;;5000929;28;20033;-71
2022/08/02 05:28:34;;;;;;;3.15;0.50;;;16.50;99.90;;;;;;5001482;28;20037;-70
2022/08/02 05:31:00;;;;;;;2.10;0.60;;;16.50;99.90;;;;;;4999421;28;20532;-71
2022/08/02 05:33:25;;;;;;;4.68;0.77;;;16.50;99.90;;;;;;4996328;28;20105;-70
2022/08/02 05:35:51;;;;;;;3.20;0.98;;;16.60;99.90;;;;;;5011342;28;20038;-71
2022/08/02 05:38:16;;;;;;;1.67;0.70;;;16.60;99.90;;;;;;5000136;28;20033;-71
2022/08/02 05:40:42;;;;;;;3.15;1.20;;;16.60;99.90;;;;;;4999352;28;20045;-71
2022/08/02 05:43:14;;;;;;;2.33;0.82;;;16.70;99.90;;;;;;5000371;28;20046;-71
2022/08/02 05:45:40;;;;;;;3.00;0.98;;;16.80;99.90;;;;;;4998147;28;20112;-71
2022/08/02 05:48:06;;;;;;;5.18;0.88;;;16.80;99.90;;;;;;4997561;28;20149;-71
2022/08/02 05:50:36;;;;;;;2.80;0.80;;;17.00;99.90;;;;;;5001235;28;20502;-71
2022/08/02 05:53:24;;;;;;;3.50;1.23;;;17.00;99.90;;;;;;4997422;28;20045;-71
2022/08/02 05:56:22;;;;;;;4.05;0.80;;;17.10;99.90;;;;;;4988554;28;20042;-70
2022/08/02 05:59:14;;;;;;;5.63;1.15;;;17.20;99.90;;;;;;4992282;28;20049;-70
2022/08/02 06:01:42;;;;;;;5.47;1.10;;;17.30;99.90;;;;;;5001076;28;20100;-70
2022/08/02 06:04:10;;;;;;;5.13;1.20;;;17.30;99.90;;;;;;4999273;28;20387;-70
2022/08/02 06:06:41;;;;;;;2.25;0.70;;;17.40;99.90;;;;;;4998620;28;20076;-71
2022/08/02 06:09:19;;;;;;;4.50;1.30;;;17.40;99.90;;;;;;5000571;28;20092;-72
2022/08/02 06:11:50;;;;;;;5.68;1.60;;;17.50;99.90;;;;;;5008891;28;20042;-71
2022/08/02 06:14:17;;;;;;;6.65;1.35;;;17.70;99.90;;;;;;5015874;28;20073;-70
2022/08/02 06:16:43;;;;;;;8.85;1.83;;;17.80;99.90;;;;;;5015737;28;20065;-69
2022/08/02 06:19:11;;;;;;;7.53;2.13;;;18.00;99.90;;;;;;5016771;28;20037;-70
2022/08/02 06:21:39;;;;;;;4.18;1.40;;;18.10;99.90;;;;;;5006758;28;20038;-69
2022/08/02 06:24:07;;;;;;;5.57;1.77;;;18.20;99.90;;;;;;5000250;28;20091;-70
2022/08/02 06:26:35;;;;;;;5.55;1.50;;;18.40;99.90;;;;;;5006117;28;20037;-71
2022/08/02 06:29:01;;;;;;;7.80;2.28;;;18.60;99.90;;;;;;5002095;28;20030;-70
2022/08/02 06:31:28;;;;;;;5.93;1.40;;;18.80;99.90;;;;;;5004716;28;20073;-72
2022/08/02 06:33:54;;;;;;;7.88;1.90;;;19.00;99.90;;;;;;5002656;28;20029;-71
2022/08/02 06:36:40;;;;;;;11.52;2.38;;;19.20;99.90;;;;;;5002574;28;20042;-71
2022/08/02 06:39:24;;;;;;;7.18;1.90;;;19.40;99.90;;;;;;5001323;28;20038;-71
2022/08/02 06:41:53;;;;;;;4.88;1.45;;;19.60;99.90;;;;;;5001467;28;20510;-72
2022/08/02 06:44:19;;;;;;;3.60;1.60;;;20.00;99.90;;;;;;5000457;28;20432;-70
2022/08/02 06:46:45;;;;;;;2.60;1.30;;;20.40;99.90;;;;;;5001667;28;20034;-71
2022/08/02 06:49:10;;;;;;;3.65;1.63;;;20.80;99.90;;;;;;5001061;28;20038;-73
2022/08/02 06:51:36;;;;;;;9.32;2.10;;;21.50;99.90;;;;;;5002949;28;20034;-72
2022/08/02 06:54:01;;;;;;;3.78;1.85;;;22.10;99.60;;;;;;5000280;28;20040;-71
2022/08/02 06:56:27;;;;;;;6.95;1.83;;;22.70;99.40;;;;;;5003193;28;20077;-72
2022/08/02 06:58:52;;;;;;;5.43;1.65;;;23.10;98.30;;;;;;5001218;28;20034;-71
2022/08/02 07:01:19;;;;;;;8.13;2.08;;;23.20;98.40;;;;;;5003381;28;20037;-71
2022/08/02 07:03:44;;;;;;;2.05;1.40;;;23.30;97.40;;;;;;5000170;28;20037;-70
2022/08/02 07:06:10;;;;;;;7.55;2.50;;;23.30;98.40;;;;;;5001707;28;20038;-71
2022/08/02 07:08:37;;;;;;;5.15;1.95;;;23.70;97.20;;;;;;5003663;28;20045;-71
2022/08/02 07:11:09;;;;;;;6.55;2.25;;;23.90;97.70;;;;;;5004071;28;20026;-69
2022/08/02 07:13:35;;;;;;;3.80;1.92;;;24.50;97.40;;;;;;5000335;28;20410;-71
2022/08/02 07:16:02;;;;;;;6.35;2.00;;;25.00;96.70;;;;;;5002280;28;20034;-70
2022/08/02 07:18:28;;;;;;;4.68;1.80;;;25.50;95.80;;;;;;5002621;28;20973;-71
2022/08/02 07:20:54;;;;;;;4.47;1.75;;;25.70;95.90;;;;;;5001494;28;20052;-71
2022/08/02 07:23:20;;;;;;;5.32;1.98;;;25.70;95.70;;;;;;5001012;28;20034;-71
2022/08/02 07:25:46;;;;;;;3.80;2.45;;;25.90;95.90;;;;;;5003949;28;20050;-69
2022/08/02 07:28:14;;;;;;;5.32;2.72;;;26.10;94.90;;;;;;5000274;28;20064;-70
2022/08/02 07:30:40;;;;;;;5.80;2.92;;;26.20;95.50;;;;;;5001977;28;20792;-71
2022/08/02 07:33:06;;;;;;;8.70;3.40;;;26.40;95.20;;;;;;4999548;28;20502;-71
2022/08/02 07:35:32;;;;;;;5.82;3.20;;;26.60;94.60;;;;;;5000685;28;20562;-71
2022/08/02 07:37:57;;;;;;;3.42;2.63;;;26.60;94.80;;;;;;5001417;28;20041;-71
2022/08/02 07:40:24;;;;;;;7.60;3.47;;;26.90;94.70;;;;;;5002515;28;20045;-69
2022/08/02 07:42:53;;;;;;;6.43;3.38;;;27.00;94.60;;;;;;5000533;28;20037;-70
2022/08/02 07:45:20;;;;;;;9.20;3.70;;;27.20;94.10;;;;;;5000835;28;20088;-70
2022/08/02 07:47:46;;;;;;;5.05;3.13;;;27.40;93.70;;;;;;4999698;28;20107;-71
2022/08/02 07:50:13;;;;;;;4.85;2.53;;;27.10;94.00;;;;;;5001701;28;20446;-70
2022/08/02 07:52:43;;;;;;;6.88;2.55;;;27.00;94.20;;;;;;5000473;28;20737;-70
2022/08/02 07:55:10;;;;;;;5.82;2.83;;;26.50;94.70;;;;;;5001745;28;20045;-71
2022/08/02 07:57:37;;;;;;;8.68;3.08;;;25.90;95.50;;;;;;5002406;28;20126;-71
2022/08/02 08:00:04;;;;;;;6.88;2.60;;;25.70;96.00;;;;;;5001652;28;20049;-70
2022/08/02 08:02:29;;;;;;;7.78;2.90;;;25.40;96.50;;;;;;5001145;28;20438;-71
2022/08/02 08:04:55;;;;;;;4.15;2.30;;;25.00;96.80;;;;;;5001117;28;20040;-70
2022/08/02 08:07:21;;;;;;;6.18;2.60;;;24.70;97.20;;;;;;5001996;28;20053;-71
2022/08/02 08:09:49;;;;;;;6.88;2.55;;;24.50;97.40;;;;;;5002849;28;20046;-71
2022/08/02 08:12:15;;;;;;;6.82;2.63;;;24.30;98.20;;;;;;5000778;28;20398;-70
2022/08/02 08:14:40;;;;;;;4.95;2.90;;;24.10;98.40;;;;;;5005079;28;20041;-72
2022/08/02 08:17:06;;;;;;;6.72;2.50;;;24.00;98.30;;;;;;5006882;28;20033;-72
2022/08/02 08:19:32;;;;;;;5.93;3.25;;;23.80;98.80;;;;;;5008703;28;20065;-71
2022/08/02 08:22:00;;;;;;;3.80;1.83;;;23.60;98.80;;;;;;4997263;28;20030;-71
2022/08/02 08:24:29;;;;;;;6.85;2.38;;;23.70;99.20;;;;;;5000960;28;20493;-71
2022/08/02 08:26:55;;;;;;;3.83;2.60;;;23.70;99.30;;;;;;5000903;28;20115;-72
2022/08/02 08:29:22;;;;;;;4.53;1.83;;;23.70;99.40;;;;;;5001301;28;20371;-72
2022/08/02 08:31:47;;;;;;;7.88;2.15;;;23.90;99.10;;;;;;5000667;28;20556;-71
2022/08/02 08:34:13;;;;;;;2.83;1.55;;;24.00;98.70;;;;;;5000046;28;20030;-70
2022/08/02 08:36:40;;;;;;;4.68;1.58;;;24.00;98.60;;;;;;5000639;28;20041;-70
2022/08/02 08:39:06;;;;;;;3.70;1.63;;;24.00;98.90;;;;;;5000564;28;20034;-70
2022/08/02 08:41:31;;;;;;;5.32;1.80;;;23.90;99.00;;;;;;4999749;28;20525;-71
2022/08/02 08:44:00;;;;;;;5.60;2.03;;;24.00;99.30;;;;;;4997515;28;20034;-70
2022/08/02 08:46:27;;;;;;;8.60;2.55;;;24.10;99.10;;;;;;5001067;28;20414;-71
2022/08/02 08:48:59;;;;;;;6.45;2.63;;;24.00;99.40;;;;;;5000401;28;20030;-70
2022/08/02 08:51:30;;;;;;;4.32;2.25;;;24.00;99.70;;;;;;4998597;28;20133;-70
2022/08/02 08:54:00;;;;;;;4.50;2.17;;;24.10;99.90;;;;;;4996862;28;20026;-71
2022/08/02 08:56:31;;;;;;;7.55;2.85;;;24.20;99.90;;;;;;5000466;28;20038;-70
2022/08/02 08:58:57;;;;;;;6.57;3.42;;;24.30;99.70;;;;;;4998575;28;20038;-70
2022/08/02 09:01:23;;;;;;;4.75;2.70;;;24.30;99.90;;;;;;5001522;28;20050;-70
2022/08/02 09:03:48;;;;;;;6.35;3.28;;;24.30;99.90;;;;;;4999694;28;20096;-70
2022/08/02 09:06:14;;;;;;;6.60;3.05;;;24.40;99.90;;;;;;5000605;28;20038;-71
2022/08/02 09:08:40;;;;;;;4.70;2.83;;;24.50;99.90;;;;;;4998852;28;20073;-69
2022/08/02 09:11:14;;;;;;;5.50;2.97;;;24.50;99.90;;;;;;5000000;28;20045;-69
2022/08/02 09:13:49;;;;;;;7.32;3.50;;;24.50;99.90;;;;;;4999336;28;20112;-69
2022/08/02 09:16:14;;;;;;;6.70;3.88;;;24.60;99.90;;;;;;5001203;28;20049;-72
2022/08/02 09:18:43;;;;;;;7.38;3.50;;;24.60;99.90;;;;;;4999965;28;20044;-70
2022/08/02 09:21:09;;;;;;;6.80;3.30;;;24.80;99.90;;;;;;4997780;28;20053;-69
2022/08/02 09:23:43;;;;;;;9.45;3.58;;;25.00;99.70;;;;;;5000218;28;20095;-69
2022/08/02 09:26:11;;;;;;;9.30;3.63;;;25.10;99.60;;;;;;5001612;28;20049;-68
2022/08/02 09:28:39;;;;;;;9.80;4.28;;;25.30;99.80;;;;;;4999591;28;20042;-70
2022/08/02 09:31:10;;;;;;;6.43;3.63;;;25.40;99.60;;;;;;4995869;28;20084;-69
2022/08/02 09:33:37;;;;;;;9.30;4.13;;;25.40;99.70;;;;;;4999283;28;20216;-70
2022/08/02 09:36:04;;;;;;;7.70;2.92;;;25.40;99.70;;;;;;4997405;28;20667;-70
2022/08/02 09:38:31;;;;;;;7.65;3.10;;;25.30;99.40;;;;;;4999532;28;20060;-68
2022/08/02 09:40:57;;;;;;;5.93;3.08;;;25.40;98.70;;;;;;4998280;28;20394;-71
2022/08/02 09:43:40;;;;;;;3.65;1.80;;;25.40;98.80;;;;;;4998718;28;20101;-71
2022/08/02 09:46:09;;;;;;;5.22;2.60;;;25.50;98.80;;;;;;4997479;28;20612;-69
2022/08/02 09:48:47;;;;;;;4.45;1.75;;;25.50;98.90;;;;;;5003115;28;20038;-71
2022/08/02 09:51:23;;;;;;;2.78;1.40;;;25.70;98.90;;;;;;5002393;28;20037;-71
2022/08/02 09:53:52;;;;;;;2.20;1.23;;;26.00;98.50;;;;;;5000811;28;20116;-69
2022/08/02 09:56:19;;;;;;;3.30;1.80;;;26.30;98.30;;;;;;5003027;28;20033;-70
2022/08/02 09:58:45;;;;;;;4.35;1.77;;;26.40;97.70;;;;;;5002930;28;20089;-70
2022/08/02 10:01:10;;;;;;;3.53;2.03;;;26.40;97.50;;;;;;5004599;28;20052;-70
2022/08/02 10:03:36;;;;;;;3.63;1.20;;;26.40;97.20;;;;;;5001891;28;20045;-70
2022/08/02 10:06:03;;;;;;;4.18;1.55;;;26.40;96.50;;;;;;5002136;28;20044;-71
2022/08/02 10:08:30;;;;;;;2.00;0.98;;;26.40;97.00;;;;;;5001939;28;20045;-70
2022/08/02 10:11:00;;;;;;;1.92;0.98;;;26.40;96.80;;;;;;5002083;28;20032;-70
2022/08/02 10:13:33;;;;;;;1.90;1.25;;;26.30;96.40;;;;;;5002407;28;20114;-70
2022/08/02 10:16:01;;;;;;;2.47;1.40;;;26.20;96.50;;;;;;5000523;28;20310;-68
2022/08/02 10:18:27;;;;;;;3.30;1.42;;;26.10;97.10;;;;;;5001029;28;20150;-71
2022/08/02 10:20:55;;;;;;;3.95;1.00;;;26.20;97.40;;;;;;5003439;28;20030;-68
2022/08/02 10:23:23;;;;;;;3.08;1.63;;;26.40;97.00;;;;;;4999455;28;20029;-69
2022/08/02 10:25:50;;;;;;;3.17;1.40;;;26.50;96.50;;;;;;5000040;28;20056;-70
2022/08/02 10:28:18;;;;;;;3.08;1.17;;;26.50;96.10;;;;;;5001488;28;20036;-70
2022/08/02 10:30:47;;;;;;;4.85;1.00;;;26.70;95.60;;;;;;5003387;28;20045;-69
2022/08/02 10:33:16;;;;;;;2.67;1.00;;;26.80;95.00;;;;;;5002956;28;20030;-70
2022/08/02 10:35:43;;;;;;;1.35;0.70;;;26.80;95.20;;;;;;5002871;28;20041;-70
2022/08/02 10:38:10;;;;;;;1.80;1.10;;;26.70;95.90;;;;;;5000552;28;20061;-70
2022/08/02 10:40:44;;;;;;;1.60;0.77;;;26.60;95.10;;;;;;5001912;28;20069;-69
2022/08/02 10:43:10;;;;;;;3.55;1.35;;;26.60;95.60;;;;;;5000927;28;20065;-70
2022/08/02 10:45:35;;;;;;;3.72;0.95;;;26.70;95.20;;;;;;5002931;28;20076;-70
2022/08/02 10:48:10;;;;;;;2.25;0.80;;;26.90;94.10;;;;;;4998578;28;20046;-70
2022/08/02 10:50:47;;;;;;;3.45;0.98;;;27.00;94.20;;;;;;5001841;28;20087;-72
2022/08/02 10:53:28;;;;;;;2.58;1.00;;;27.00;94.40;;;;;;5000463;28;20051;-70
2022/08/02 10:55:55;;;;;;;1.90;0.80;;;27.10;93.80;;;;;;5000910;28;20034;-72
2022/08/02 10:58:22;;;;;;;2.13;1.08;;;27.00;93.90;;;;;;5001372;28;20038;-71
2022/08/02 11:00:49;;;;;;;3.25;1.10;;;27.10;94.40;;;;;;5000970;28;20042;-70
2022/08/02 11:03:38;;;;;;;2.85;0.98;;;27.20;93.40;;;;;;4999409;28;20104;-70
2022/08/02 11:06:06;;;;;;;1.95;1.05;;;27.40;93.70;;;;;;5001653;28;20049;-70
2022/08/02 11:08:32;;;;;;;1.38;0.73;;;27.30;93.10;;;;;;5003541;28;20088;-71
2022/08/02 11:11:19;;;;;;;3.13;0.90;;;27.30;92.70;;;;;;5000526;28;20747;-68
2022/08/02 11:14:01;;;;;;;1.50;0.88;;;27.10;92.20;;;;;;4999140;28;20034;-70
2022/08/02 11:16:55;;;;;;;1.45;0.60;;;27.00;92.50;;;;;;5001928;28;20647;-71
2022/08/02 11:19:26;;;;;;;1.42;0.60;;;27.00;93.10;;;;;;4999661;28;20091;-69
2022/08/02 11:22:05;;;;;;;1.48;0.75;;;27.00;93.20;;;;;;5000136;28;20046;-71
2022/08/02 11:24:32;;;;;;;1.80;0.90;;;27.10;93.00;;;;;;4999592;28;20030;-71
2022/08/02 11:27:00;;;;;;;1.67;0.77;;;27.20;92.30;;;;;;5001982;28;20045;-70
2022/08/02 11:29:35;;;;;;;1.92;0.50;;;27.20;92.50;;;;;;5000995;28;20577;-68
2022/08/02 11:32:03;;;;;;;1.42;0.65;;;27.20;92.60;;;;;;5001992;28;20117;-69
2022/08/02 11:34:32;;;;;;;1.02;0.47;;;27.30;92.70;;;;;;5002097;28;20046;-69
2022/08/02 11:36:58;;;;;;;2.25;0.50;;;27.50;92.40;;;;;;5002280;28;20817;-70
2022/08/02 11:39:24;;;;;;;1.27;0.70;;;27.50;91.80;;;;;;5002719;28;20056;-71
2022/08/02 11:41:55;;;;;;;0.85;0.55;;;27.50;92.20;;;;;;5000371;28;20037;-73
2022/08/02 11:44:22;;;;;;;0.68;0.63;;;27.60;92.10;;;;;;5000313;28;20508;-70
2022/08/02 11:47:00;;;;;;;2.03;0.52;;;27.60;92.50;;;;;;5000404;28;20052;-70
2022/08/02 11:49:27;;;;;;;1.20;0.45;;;27.60;92.50;;;;;;4999863;28;20046;-68
2022/08/02 11:52:06;;;;;;;3.70;0.55;;;27.80;92.60;;;;;;5001773;28;20080;-70
2022/08/02 11:54:40;;;;;;;0.85;0.63;;;27.70;91.70;;;;;;4999273;28;20125;-70
2022/08/02 11:57:13;;;;;;;2.88;0.60;;;27.60;91.20;;;;;;4999937;28;20038;-69
2022/08/02 11:59:43;;;;;;;2.15;0.60;;;27.70;91.20;;;;;;5001689;28;20596;-70
2022/08/02 12:02:10;;;;;;;1.30;0.50;;;27.70;90.70;;;;;;5000976;28;20060;-69
2022/08/02 12:04:36;;;;;;;5.05;0.77;;;27.60;90.70;;;;;;5001031;28;20561;-70
2022/08/02 12:07:04;;;;;;;1.05;0.63;;;27.60;91.50;;;;;;4999825;28;20029;-70
2022/08/02 12:09:33;;;;;;;2.13;0.60;;;27.60;91.20;;;;;;5001482;28;20045;-69
2022/08/02 12:11:59;;;;;;;1.33;0.70;;;27.70;91.20;;;;;;5000131;28;20482;-69
2022/08/02 12:14:29;;;;;;;2.83;0.50;;;27.60;90.90;;;;;;5000767;28;20045;-70
2022/08/02 12:19:41;;;;;;;1.70;0.63;;;27.60;91.30;;;;;;5001227;28;20048;-69
2022/08/02 12:22:23;;;;;;;0.98;0.40;;;27.50;90.30;;;;;;5001220;28;20038;-70
2022/08/02 12:24:53;;;;;;;0.98;0.60;;;27.40;90.90;;;;;;4998634;28;20038;-70
2022/08/02 12:27:33;;;;;;;0.85;0.28;;;27.40;90.10;;;;;;5001911;28;20052;-70
2022/08/02 12:30:04;;;;;;;5.13;0.90;;;27.30;90.70;;;;;;4998711;28;20117;-70
2022/08/02 12:32:30;;;;;;;4.10;0.60;;;27.30;90.10;;;;;;5000765;28;20510;-73
2022/08/02 12:35:09;;;;;;;1.05;0.40;;;27.20;90.00;;;;;;5001042;28;20041;-72
2022/08/02 12:37:36;;;;;;;2.15;0.30;;;27.10;90.40;;;;;;4999459;28;20034;-70
2022/08/02 12:40:26;;;;;;;1.83;0.57;;;27.10;90.40;;;;;;5000025;28;20030;-70
2022/08/02 12:43:22;;;;;;;1.67;0.75;;;27.10;90.20;;;;;;4996998;28;20040;-69
2022/08/02 12:45:56;;;;;;;1.05;0.30;;;27.00;89.50;;;;;;4998392;28;20033;-71
2022/08/02 12:48:35;;;;;;;1.23;0.65;;;26.90;87.80;;;;;;5001405;28;20057;-71
2022/08/02 12:51:25;;;;;;;3.97;0.88;;;26.90;89.20;;;;;;4999652;28;20100;-69
2022/08/02 12:53:52;;;;;;;1.75;0.55;;;26.80;88.80;;;;;;4998727;28;20556;-70
2022/08/02 12:56:29;;;;;;;2.15;0.50;;;26.70;88.10;;;;;;5001176;28;20029;-70
2022/08/02 12:58:55;;;;;;;2.78;0.60;;;26.70;87.30;;;;;;5001185;28;20109;-69
2022/08/02 13:01:23;;;;;;;2.78;0.30;;;26.80;88.30;;;;;;4999873;28;20042;-70
2022/08/02 13:03:50;;;;;;;1.00;0.40;;;26.90;88.70;;;;;;4999793;28;20041;-69